sensor_id;sensor_type;location;lat;lon;timestamp;pressure;altitude;pressure_sealevel;temperature;humidity
64967;BME280;51710;38.732;-121.358;2022-11-20T00:00:48;101716.81;;;17.35;31.25
64967;BME280;51710;38.732;-121.358;2022-11-20T00:03:18;101714.38;;;17.26;31.31
64967;BME280;51710;38.732;-121.358;2022-11-20T00:05:51;101716.59;;;17.14;31.52
64967;BME280;51710;38.732;-121.358;2022-11-20T00:08:18;101722.69;;;17.08;31.67
64967;BME280;51710;38.732;-121.358;2022-11-20T00:10:46;101717.63;;;17.05;31.70
64967;BME280;51710;38.732;-121.358;2022-11-20T00:13:16;101722.22;;;17.05;31.77
64967;BME280;51710;38.732;-121.358;2022-11-20T00:15:47;101723.56;;;17.01;32.14
64967;BME280;51710;38.732;-121.358;2022-11-20T00:18:17;101719.03;;;16.93;32.02
64967;BME280;51710;38.732;-121.358;2022-11-20T00:20:46;101720.09;;;16.84;32.16
64967;BME280;51710;38.732;-121.358;2022-11-20T00:23:18;101714.91;;;16.74;32.06
64967;BME280;51710;38.732;-121.358;2022-11-20T00:25:46;101711.75;;;16.63;32.11
64967;BME280;51710;38.732;-121.358;2022-11-20T00:28:18;101702.88;;;16.46;32.19
64967;BME280;51710;38.732;-121.358;2022-11-20T00:31:04;101707.25;;;16.31;31.91
64967;BME280;51710;38.732;-121.358;2022-11-20T00:33:38;101712.13;;;16.12;32.25
64967;BME280;51710;38.732;-121.358;2022-11-20T00:36:25;101708.75;;;15.94;32.46
64967;BME280;51710;38.732;-121.358;2022-11-20T00:39:03;101710.44;;;15.78;32.77
64967;BME280;51710;38.732;-121.358;2022-11-20T00:45:00;101718.63;;;15.53;33.20
64967;BME280;51710;38.732;-121.358;2022-11-20T00:50:32;101706.09;;;15.28;33.54
64967;BME280;51710;38.732;-121.358;2022-11-20T00:53:32;101713.13;;;15.13;34.03
64967;BME280;51710;38.732;-121.358;2022-11-20T00:56:16;101713.56;;;15.00;33.84
64967;BME280;51710;38.732;-121.358;2022-11-20T00:59:21;101715.31;;;14.84;34.51
64967;BME280;51710;38.732;-121.358;2022-11-20T01:02:06;101712.09;;;14.72;34.65
64967;BME280;51710;38.732;-121.358;2022-11-20T01:04:43;101718.56;;;14.61;34.80
64967;BME280;51710;38.732;-121.358;2022-11-20T01:07:10;101720.69;;;14.50;35.30
64967;BME280;51710;38.732;-121.358;2022-11-20T01:09:43;101722.56;;;14.32;35.09
64967;BME280;51710;38.732;-121.358;2022-11-20T01:12:33;101722.88;;;14.11;35.46
64967;BME280;51710;38.732;-121.358;2022-11-20T01:15:03;101716.53;;;13.95;35.58
64967;BME280;51710;38.732;-121.358;2022-11-20T01:17:31;101726.50;;;13.85;36.10
64967;BME280;51710;38.732;-121.358;2022-11-20T01:19:57;101726.31;;;13.69;36.06
64967;BME280;51710;38.732;-121.358;2022-11-20T01:22:24;101726.63;;;13.48;36.57
64967;BME280;51710;38.732;-121.358;2022-11-20T01:24:51;101740.13;;;13.29;37.19
64967;BME280;51710;38.732;-121.358;2022-11-20T01:27:18;101743.75;;;13.10;38.00
64967;BME280;51710;38.732;-121.358;2022-11-20T01:29:44;101741.53;;;12.96;38.10
64967;BME280;51710;38.732;-121.358;2022-11-20T01:32:11;101740.75;;;12.86;38.13
64967;BME280;51710;38.732;-121.358;2022-11-20T01:34:38;101746.97;;;12.77;38.52
64967;BME280;51710;38.732;-121.358;2022-11-20T01:37:04;101752.63;;;12.65;39.10
64967;BME280;51710;38.732;-121.358;2022-11-20T01:39:32;101753.47;;;12.56;39.35
64967;BME280;51710;38.732;-121.358;2022-11-20T01:41:59;101750.16;;;12.44;38.99
64967;BME280;51710;38.732;-121.358;2022-11-20T01:44:55;101753.81;;;12.33;39.53
64967;BME280;51710;38.732;-121.358;2022-11-20T01:47:29;101756.06;;;12.19;39.66
64967;BME280;51710;38.732;-121.358;2022-11-20T01:50:25;101757.66;;;12.02;40.17
64967;BME280;51710;38.732;-121.358;2022-11-20T01:52:59;101762.13;;;11.83;39.81
64967;BME280;51710;38.732;-121.358;2022-11-20T01:55:39;101764.25;;;11.70;40.03
64967;BME280;51710;38.732;-121.358;2022-11-20T01:58:08;101755.34;;;11.60;40.21
64967;BME280;51710;38.732;-121.358;2022-11-20T02:00:36;101766.56;;;11.54;40.52
64967;BME280;51710;38.732;-121.358;2022-11-20T02:03:12;101757.44;;;11.47;40.99
64967;BME280;51710;38.732;-121.358;2022-11-20T02:08:24;101763.69;;;11.26;40.84
64967;BME280;51710;38.732;-121.358;2022-11-20T02:10:51;101771.97;;;11.23;40.54
64967;BME280;51710;38.732;-121.358;2022-11-20T02:13:18;101767.44;;;11.14;40.87
64967;BME280;51710;38.732;-121.358;2022-11-20T02:16:04;101771.63;;;11.07;41.30
64967;BME280;51710;38.732;-121.358;2022-11-20T02:18:34;101772.41;;;10.98;41.38
64967;BME280;51710;38.732;-121.358;2022-11-20T02:21:30;101773.25;;;10.89;41.49
64967;BME280;51710;38.732;-121.358;2022-11-20T02:24:14;101776.25;;;10.75;41.70
64967;BME280;51710;38.732;-121.358;2022-11-20T02:27:02;101780.66;;;10.65;42.56
64967;BME280;51710;38.732;-121.358;2022-11-20T02:29:37;101780.63;;;10.56;42.61
64967;BME280;51710;38.732;-121.358;2022-11-20T02:32:05;101780.31;;;10.49;42.95
64967;BME280;51710;38.732;-121.358;2022-11-20T02:34:32;101788.81;;;10.43;42.91
64967;BME280;51710;38.732;-121.358;2022-11-20T02:36:59;101786.91;;;10.34;42.67
64967;BME280;51710;38.732;-121.358;2022-11-20T02:39:27;101791.22;;;10.26;43.14
64967;BME280;51710;38.732;-121.358;2022-11-20T02:41:56;101785.09;;;10.14;42.88
64967;BME280;51710;38.732;-121.358;2022-11-20T02:44:23;101798.41;;;10.03;43.78
64967;BME280;51710;38.732;-121.358;2022-11-20T02:46:50;101799.44;;;9.91;43.77
64967;BME280;51710;38.732;-121.358;2022-11-20T02:49:16;101801.44;;;9.78;43.87
64967;BME280;51710;38.732;-121.358;2022-11-20T02:51:43;101796.13;;;9.67;44.28
64967;BME280;51710;38.732;-121.358;2022-11-20T02:54:10;101797.59;;;9.60;44.99
64967;BME280;51710;38.732;-121.358;2022-11-20T02:56:38;101803.31;;;9.55;45.10
64967;BME280;51710;38.732;-121.358;2022-11-20T02:59:05;101803.66;;;9.51;44.96
64967;BME280;51710;38.732;-121.358;2022-11-20T03:01:31;101815.50;;;9.47;45.52
64967;BME280;51710;38.732;-121.358;2022-11-20T03:03:58;101809.97;;;9.39;45.70
64967;BME280;51710;38.732;-121.358;2022-11-20T03:06:24;101812.13;;;9.34;45.69
64967;BME280;51710;38.732;-121.358;2022-11-20T03:08:51;101809.34;;;9.24;45.61
64967;BME280;51710;38.732;-121.358;2022-11-20T03:11:17;101813.38;;;9.19;45.63
64967;BME280;51710;38.732;-121.358;2022-11-20T03:13:44;101819.88;;;9.15;46.01
64967;BME280;51710;38.732;-121.358;2022-11-20T03:16:15;101809.97;;;9.05;46.01
64967;BME280;51710;38.732;-121.358;2022-11-20T03:18:43;101816.84;;;8.97;46.28
64967;BME280;51710;38.732;-121.358;2022-11-20T03:21:11;101815.66;;;8.90;46.39
64967;BME280;51710;38.732;-121.358;2022-11-20T03:23:39;101821.41;;;8.84;47.01
64967;BME280;51710;38.732;-121.358;2022-11-20T03:26:26;101824.69;;;8.76;46.73
64967;BME280;51710;38.732;-121.358;2022-11-20T03:28:59;101825.75;;;8.74;47.24
64967;BME280;51710;38.732;-121.358;2022-11-20T03:31:31;101822.50;;;8.70;47.25
64967;BME280;51710;38.732;-121.358;2022-11-20T03:33:59;101827.56;;;8.62;47.49
64967;BME280;51710;38.732;-121.358;2022-11-20T03:36:27;101833.81;;;8.50;47.46
64967;BME280;51710;38.732;-121.358;2022-11-20T03:38:55;101836.03;;;8.33;48.18
64967;BME280;51710;38.732;-121.358;2022-11-20T03:41:24;101839.47;;;8.22;48.62
64967;BME280;51710;38.732;-121.358;2022-11-20T03:43:56;101841.63;;;8.17;48.84
64967;BME280;51710;38.732;-121.358;2022-11-20T03:46:24;101850.75;;;8.13;49.16
64967;BME280;51710;38.732;-121.358;2022-11-20T03:48:53;101847.38;;;8.11;49.04
64967;BME280;51710;38.732;-121.358;2022-11-20T03:51:25;101849.63;;;8.05;48.84
64967;BME280;51710;38.732;-121.358;2022-11-20T03:53:55;101855.00;;;7.92;49.60
64967;BME280;51710;38.732;-121.358;2022-11-20T03:56:30;101854.41;;;7.76;49.92
64967;BME280;51710;38.732;-121.358;2022-11-20T03:58:58;101859.66;;;7.65;49.79
64967;BME280;51710;38.732;-121.358;2022-11-20T04:01:27;101863.72;;;7.58;50.38
64967;BME280;51710;38.732;-121.358;2022-11-20T04:03:56;101860.97;;;7.47;50.73
64967;BME280;51710;38.732;-121.358;2022-11-20T04:08:53;101863.31;;;7.51;50.65
64967;BME280;51710;38.732;-121.358;2022-11-20T04:11:29;101864.34;;;7.49;50.69
64967;BME280;51710;38.732;-121.358;2022-11-20T04:13:58;101864.59;;;7.46;50.82
64967;BME280;51710;38.732;-121.358;2022-11-20T04:16:28;101870.31;;;7.40;51.61
64967;BME280;51710;38.732;-121.358;2022-11-20T04:18:58;101867.78;;;7.26;51.68
64967;BME280;51710;38.732;-121.358;2022-11-20T04:21:25;101869.38;;;7.16;51.66
64967;BME280;51710;38.732;-121.358;2022-11-20T04:23:53;101874.38;;;7.08;52.33
64967;BME280;51710;38.732;-121.358;2022-11-20T04:26:21;101875.75;;;7.01;52.60
64967;BME280;51710;38.732;-121.358;2022-11-20T04:28:49;101884.75;;;6.98;52.55
64967;BME280;51710;38.732;-121.358;2022-11-20T04:31:20;101880.53;;;6.96;52.81
64967;BME280;51710;38.732;-121.358;2022-11-20T04:33:47;101878.94;;;6.93;52.43
64967;BME280;51710;38.732;-121.358;2022-11-20T04:36:16;101878.50;;;6.87;53.13
64967;BME280;51710;38.732;-121.358;2022-11-20T04:38:44;101878.16;;;6.78;52.94
64967;BME280;51710;38.732;-121.358;2022-11-20T04:41:20;101880.50;;;6.70;52.85
64967;BME280;51710;38.732;-121.358;2022-11-20T04:43:48;101885.25;;;6.65;53.29
64967;BME280;51710;38.732;-121.358;2022-11-20T04:46:16;101890.56;;;6.65;53.36
64967;BME280;51710;38.732;-121.358;2022-11-20T04:48:44;101889.81;;;6.63;53.85
64967;BME280;51710;38.732;-121.358;2022-11-20T04:51:11;101878.56;;;6.60;53.96
64967;BME280;51710;38.732;-121.358;2022-11-20T04:53:38;101892.13;;;6.55;53.86
64967;BME280;51710;38.732;-121.358;2022-11-20T04:56:10;101890.19;;;6.57;54.22
64967;BME280;51710;38.732;-121.358;2022-11-20T04:58:39;101896.88;;;6.63;54.45
64967;BME280;51710;38.732;-121.358;2022-11-20T05:01:21;101893.41;;;6.62;53.95
64967;BME280;51710;38.732;-121.358;2022-11-20T05:03:52;101897.84;;;6.62;54.20
64967;BME280;51710;38.732;-121.358;2022-11-20T05:06:20;101900.50;;;6.62;54.27
64967;BME280;51710;38.732;-121.358;2022-11-20T05:08:48;101896.34;;;6.58;54.01
64967;BME280;51710;38.732;-121.358;2022-11-20T05:11:19;101897.22;;;6.58;54.35
64967;BME280;51710;38.732;-121.358;2022-11-20T05:13:47;101908.44;;;6.62;54.54
64967;BME280;51710;38.732;-121.358;2022-11-20T05:16:18;101907.34;;;6.64;54.13
64967;BME280;51710;38.732;-121.358;2022-11-20T05:18:47;101911.81;;;6.64;54.09
64967;BME280;51710;38.732;-121.358;2022-11-20T05:21:14;101907.56;;;6.61;54.25
64967;BME280;51710;38.732;-121.358;2022-11-20T05:23:42;101906.72;;;6.61;54.16
64967;BME280;51710;38.732;-121.358;2022-11-20T05:26:16;101901.97;;;6.66;54.52
64967;BME280;51710;38.732;-121.358;2022-11-20T05:28:44;101913.94;;;6.71;54.15
64967;BME280;51710;38.732;-121.358;2022-11-20T05:31:16;101909.50;;;6.72;54.34
64967;BME280;51710;38.732;-121.358;2022-11-20T05:33:46;101914.16;;;6.68;54.56
64967;BME280;51710;38.732;-121.358;2022-11-20T05:36:17;101917.75;;;6.67;54.89
64967;BME280;51710;38.732;-121.358;2022-11-20T05:38:44;101914.16;;;6.68;54.87
64967;BME280;51710;38.732;-121.358;2022-11-20T05:41:15;101913.28;;;6.68;54.58
64967;BME280;51710;38.732;-121.358;2022-11-20T05:43:46;101918.47;;;6.69;54.48
64967;BME280;51710;38.732;-121.358;2022-11-20T05:46:16;101920.94;;;6.72;54.83
64967;BME280;51710;38.732;-121.358;2022-11-20T05:48:44;101922.34;;;6.78;55.06
64967;BME280;51710;38.732;-121.358;2022-11-20T05:51:14;101917.69;;;6.81;55.24
64967;BME280;51710;38.732;-121.358;2022-11-20T05:53:41;101921.03;;;6.83;54.99
64967;BME280;51710;38.732;-121.358;2022-11-20T05:56:17;101930.69;;;6.84;55.53
64967;BME280;51710;38.732;-121.358;2022-11-20T05:58:50;101928.28;;;6.81;55.19
64967;BME280;51710;38.732;-121.358;2022-11-20T06:01:18;101929.41;;;6.77;55.51
64967;BME280;51710;38.732;-121.358;2022-11-20T06:03:46;101937.66;;;6.73;55.18
64967;BME280;51710;38.732;-121.358;2022-11-20T06:06:15;101935.53;;;6.65;55.60
64967;BME280;51710;38.732;-121.358;2022-11-20T06:08:46;101929.06;;;6.57;55.62
64967;BME280;51710;38.732;-121.358;2022-11-20T06:11:15;101936.53;;;6.50;55.54
64967;BME280;51710;38.732;-121.358;2022-11-20T06:14:04;101935.66;;;6.37;56.27
64967;BME280;51710;38.732;-121.358;2022-11-20T06:16:32;101934.38;;;6.30;56.03
64967;BME280;51710;38.732;-121.358;2022-11-20T06:18:59;101933.28;;;6.20;56.36
64967;BME280;51710;38.732;-121.358;2022-11-20T06:21:26;101933.66;;;6.14;56.54
64967;BME280;51710;38.732;-121.358;2022-11-20T06:23:53;101936.16;;;6.03;56.67
64967;BME280;51710;38.732;-121.358;2022-11-20T06:26:22;101936.66;;;5.96;56.75
64967;BME280;51710;38.732;-121.358;2022-11-20T06:28:51;101926.75;;;5.85;56.97
64967;BME280;51710;38.732;-121.358;2022-11-20T06:31:20;101927.94;;;5.80;57.48
64967;BME280;51710;38.732;-121.358;2022-11-20T06:33:48;101923.78;;;5.75;57.72
64967;BME280;51710;38.732;-121.358;2022-11-20T06:36:20;101931.94;;;5.72;57.97
64967;BME280;51710;38.732;-121.358;2022-11-20T06:38:47;101928.97;;;5.77;57.86
64967;BME280;51710;38.732;-121.358;2022-11-20T06:41:17;101937.03;;;5.90;58.22
64967;BME280;51710;38.732;-121.358;2022-11-20T06:43:51;101938.72;;;6.05;58.02
64967;BME280;51710;38.732;-121.358;2022-11-20T06:46:24;101937.06;;;6.16;57.74
64967;BME280;51710;38.732;-121.358;2022-11-20T06:48:50;101936.69;;;6.22;57.59
64967;BME280;51710;38.732;-121.358;2022-11-20T06:51:40;101940.78;;;6.26;57.68
64967;BME280;51710;38.732;-121.358;2022-11-20T06:54:10;101936.69;;;6.35;57.55
64967;BME280;51710;38.732;-121.358;2022-11-20T06:56:38;101948.56;;;6.42;57.92
64967;BME280;51710;38.732;-121.358;2022-11-20T06:59:08;101942.03;;;6.47;57.50
64967;BME280;51710;38.732;-121.358;2022-11-20T07:01:36;101952.97;;;6.55;57.34
64967;BME280;51710;38.732;-121.358;2022-11-20T07:04:03;101958.81;;;6.60;57.23
64967;BME280;51710;38.732;-121.358;2022-11-20T07:06:35;101958.81;;;6.60;57.47
64967;BME280;51710;38.732;-121.358;2022-11-20T07:09:05;101966.75;;;6.60;57.74
64967;BME280;51710;38.732;-121.358;2022-11-20T07:11:32;101959.00;;;6.57;57.31
64967;BME280;51710;38.732;-121.358;2022-11-20T07:14:11;101964.16;;;6.20;57.83
64967;BME280;51710;38.732;-121.358;2022-11-20T07:16:44;101973.19;;;5.75;58.37
64967;BME280;51710;38.732;-121.358;2022-11-20T07:19:33;101968.91;;;5.44;59.02
64967;BME280;51710;38.732;-121.358;2022-11-20T07:22:03;101970.34;;;5.36;59.29
64967;BME280;51710;38.732;-121.358;2022-11-20T07:24:33;101975.81;;;5.33;59.45
64967;BME280;51710;38.732;-121.358;2022-11-20T07:27:00;101974.69;;;5.23;59.34
64967;BME280;51710;38.732;-121.358;2022-11-20T07:29:27;101974.94;;;5.18;59.42
64967;BME280;51710;38.732;-121.358;2022-11-20T07:31:53;101987.13;;;5.21;59.84
64967;BME280;51710;38.732;-121.358;2022-11-20T07:34:22;101980.53;;;5.28;59.83
64967;BME280;51710;38.732;-121.358;2022-11-20T07:36:49;101983.63;;;5.34;59.64
64967;BME280;51710;38.732;-121.358;2022-11-20T07:39:20;101985.16;;;5.38;59.68
64967;BME280;51710;38.732;-121.358;2022-11-20T07:41:47;101992.03;;;5.41;59.41
64967;BME280;51710;38.732;-121.358;2022-11-20T07:44:14;101993.66;;;5.43;59.56
64967;BME280;51710;38.732;-121.358;2022-11-20T07:46:40;101992.97;;;5.40;59.14
64967;BME280;51710;38.732;-121.358;2022-11-20T07:49:10;101989.94;;;5.32;59.88
64967;BME280;51710;38.732;-121.358;2022-11-20T07:51:40;102003.25;;;5.30;59.58
64967;BME280;51710;38.732;-121.358;2022-11-20T07:54:07;101996.63;;;5.23;59.62
64967;BME280;51710;38.732;-121.358;2022-11-20T07:56:41;101989.00;;;5.19;60.07
64967;BME280;51710;38.732;-121.358;2022-11-20T07:59:08;102000.22;;;5.22;60.08
64967;BME280;51710;38.732;-121.358;2022-11-20T08:01:35;102000.03;;;5.25;60.21
64967;BME280;51710;38.732;-121.358;2022-11-20T08:04:08;102001.81;;;5.25;60.23
64967;BME280;51710;38.732;-121.358;2022-11-20T08:06:36;102000.88;;;5.26;60.15
64967;BME280;51710;38.732;-121.358;2022-11-20T08:09:12;101998.25;;;5.26;60.10
64967;BME280;51710;38.732;-121.358;2022-11-20T08:12:05;101993.50;;;5.17;60.49
64967;BME280;51710;38.732;-121.358;2022-11-20T08:14:50;101996.69;;;5.08;60.25
64967;BME280;51710;38.732;-121.358;2022-11-20T08:17:21;101994.44;;;5.02;60.29
64967;BME280;51710;38.732;-121.358;2022-11-20T08:19:48;101992.91;;;4.98;60.14
64967;BME280;51710;38.732;-121.358;2022-11-20T08:22:14;101996.25;;;4.86;60.79
64967;BME280;51710;38.732;-121.358;2022-11-20T08:24:47;101993.22;;;4.78;60.51
64967;BME280;51710;38.732;-121.358;2022-11-20T08:27:14;102000.47;;;4.74;60.83
64967;BME280;51710;38.732;-121.358;2022-11-20T08:29:41;101999.63;;;4.74;60.85
64967;BME280;51710;38.732;-121.358;2022-11-20T08:32:15;101995.44;;;4.70;61.13
64967;BME280;51710;38.732;-121.358;2022-11-20T08:34:41;101995.63;;;4.67;61.00
64967;BME280;51710;38.732;-121.358;2022-11-20T08:37:12;101990.69;;;4.60;61.27
64967;BME280;51710;38.732;-121.358;2022-11-20T08:39:40;101995.19;;;4.58;61.38
64967;BME280;51710;38.732;-121.358;2022-11-20T08:42:07;101997.00;;;4.58;61.66
64967;BME280;51710;38.732;-121.358;2022-11-20T08:44:34;102002.28;;;4.58;61.55
64967;BME280;51710;38.732;-121.358;2022-11-20T08:47:10;102002.09;;;4.61;61.59
64967;BME280;51710;38.732;-121.358;2022-11-20T08:49:37;101997.69;;;4.62;61.64
64967;BME280;51710;38.732;-121.358;2022-11-20T08:52:09;102000.31;;;4.62;61.57
64967;BME280;51710;38.732;-121.358;2022-11-20T08:54:43;102010.00;;;4.61;61.46
64967;BME280;51710;38.732;-121.358;2022-11-20T08:57:36;101998.59;;;4.60;61.38
64967;BME280;51710;38.732;-121.358;2022-11-20T09:00:05;102003.88;;;4.60;61.82
64967;BME280;51710;38.732;-121.358;2022-11-20T09:02:32;101998.97;;;4.54;61.77
64967;BME280;51710;38.732;-121.358;2022-11-20T09:05:03;102003.66;;;4.49;61.82
64967;BME280;51710;38.732;-121.358;2022-11-20T09:07:30;102002.41;;;4.41;62.29
64967;BME280;51710;38.732;-121.358;2022-11-20T09:10:01;102002.81;;;4.33;62.32
64967;BME280;51710;38.732;-121.358;2022-11-20T09:12:30;102003.81;;;4.31;62.40
64967;BME280;51710;38.732;-121.358;2022-11-20T09:15:02;101999.75;;;4.25;62.64
64967;BME280;51710;38.732;-121.358;2022-11-20T09:17:30;102000.09;;;4.19;62.41
64967;BME280;51710;38.732;-121.358;2022-11-20T09:20:00;102003.59;;;4.20;62.77
64967;BME280;51710;38.732;-121.358;2022-11-20T09:22:28;102010.66;;;4.19;62.61
64967;BME280;51710;38.732;-121.358;2022-11-20T09:25:04;102016.91;;;4.17;62.41
64967;BME280;51710;38.732;-121.358;2022-11-20T09:27:32;102009.09;;;4.15;62.96
64967;BME280;51710;38.732;-121.358;2022-11-20T09:30:03;102012.50;;;4.17;62.69
64967;BME280;51710;38.732;-121.358;2022-11-20T09:32:30;102013.59;;;4.13;63.22
64967;BME280;51710;38.732;-121.358;2022-11-20T09:35:05;102016.41;;;4.10;62.72
64967;BME280;51710;38.732;-121.358;2022-11-20T09:37:32;102024.41;;;4.09;63.15
64967;BME280;51710;38.732;-121.358;2022-11-20T09:40:03;102017.44;;;4.08;62.89
64967;BME280;51710;38.732;-121.358;2022-11-20T09:42:45;102021.00;;;4.07;63.66
64967;BME280;51710;38.732;-121.358;2022-11-20T09:56:45;102015.94;;;3.71;63.81
64967;BME280;51710;38.732;-121.358;2022-11-20T10:02:08;102013.63;;;3.65;64.18
64967;BME280;51710;38.732;-121.358;2022-11-20T10:04:47;102020.59;;;3.66;64.25
64967;BME280;51710;38.732;-121.358;2022-11-20T10:09:56;102023.00;;;3.71;64.39
64967;BME280;51710;38.732;-121.358;2022-11-20T10:12:30;102017.56;;;3.74;64.39
64967;BME280;51710;38.732;-121.358;2022-11-20T10:15:37;102022.59;;;3.78;64.47
64967;BME280;51710;38.732;-121.358;2022-11-20T10:18:41;102032.19;;;3.79;64.21
64967;BME280;51710;38.732;-121.358;2022-11-20T10:29:38;102030.75;;;3.89;64.86
64967;BME280;51710;38.732;-121.358;2022-11-20T10:32:33;102026.75;;;3.82;64.49
64967;BME280;51710;38.732;-121.358;2022-11-20T10:35:28;102028.00;;;3.75;65.51
64967;BME280;51710;38.732;-121.358;2022-11-20T10:38:20;102022.13;;;3.70;65.02
64967;BME280;51710;38.732;-121.358;2022-11-20T10:41:00;102014.66;;;3.63;64.97
64967;BME280;51710;38.732;-121.358;2022-11-20T10:43:47;102013.03;;;3.60;65.16
64967;BME280;51710;38.732;-121.358;2022-11-20T10:46:21;102015.66;;;3.60;65.46
64967;BME280;51710;38.732;-121.358;2022-11-20T10:48:52;102019.50;;;3.70;65.29
64967;BME280;51710;38.732;-121.358;2022-11-20T11:00:14;102006.81;;;4.09;64.94
64967;BME280;51710;38.732;-121.358;2022-11-20T11:02:55;102013.00;;;4.08;64.82
64967;BME280;51710;38.732;-121.358;2022-11-20T11:08:17;102012.88;;;4.11;65.32
64967;BME280;51710;38.732;-121.358;2022-11-20T11:13:55;102007.75;;;4.08;64.64
64967;BME280;51710;38.732;-121.358;2022-11-20T11:16:33;102010.28;;;4.10;64.97
64967;BME280;51710;38.732;-121.358;2022-11-20T11:19:13;102004.34;;;4.06;65.21
64967;BME280;51710;38.732;-121.358;2022-11-20T11:21:48;102006.53;;;3.98;64.59
64967;BME280;51710;38.732;-121.358;2022-11-20T11:24:35;102012.41;;;3.88;65.08
64967;BME280;51710;38.732;-121.358;2022-11-20T11:27:13;102002.25;;;3.80;65.20
64967;BME280;51710;38.732;-121.358;2022-11-20T11:30:11;102004.28;;;3.75;65.16
64967;BME280;51710;38.732;-121.358;2022-11-20T11:32:38;102008.78;;;3.73;65.60
64967;BME280;51710;38.732;-121.358;2022-11-20T11:35:18;102008.19;;;3.68;64.83
64967;BME280;51710;38.732;-121.358;2022-11-20T11:38:02;102013.63;;;3.65;65.29
64967;BME280;51710;38.732;-121.358;2022-11-20T11:40:56;102016.53;;;3.61;65.27
64967;BME280;51710;38.732;-121.358;2022-11-20T11:43:32;102012.25;;;3.58;65.15
64967;BME280;51710;38.732;-121.358;2022-11-20T11:46:55;102015.84;;;3.57;65.74
64967;BME280;51710;38.732;-121.358;2022-11-20T11:49:17;102014.28;;;3.53;65.75
64967;BME280;51710;38.732;-121.358;2022-11-20T11:57:01;102013.84;;;3.45;65.57
64967;BME280;51710;38.732;-121.358;2022-11-20T12:10:53;102019.66;;;3.34;65.64
64967;BME280;51710;38.732;-121.358;2022-11-20T12:13:39;102019.09;;;3.28;65.91
64967;BME280;51710;38.732;-121.358;2022-11-20T12:16:26;102012.44;;;3.21;65.78
64967;BME280;51710;38.732;-121.358;2022-11-20T12:18:54;102019.59;;;3.19;65.82
64967;BME280;51710;38.732;-121.358;2022-11-20T12:27:22;102011.81;;;3.33;65.67
64967;BME280;51710;38.732;-121.358;2022-11-20T12:30:29;102011.69;;;3.36;66.35
64967;BME280;51710;38.732;-121.358;2022-11-20T12:39:24;102014.09;;;3.06;66.22
64967;BME280;51710;38.732;-121.358;2022-11-20T12:41:46;102022.22;;;3.02;65.92
64967;BME280;51710;38.732;-121.358;2022-11-20T13:02:30;102043.97;;;3.05;66.32
64967;BME280;51710;38.732;-121.358;2022-11-20T13:07:52;102054.34;;;2.56;66.56
64967;BME280;51710;38.732;-121.358;2022-11-20T13:10:35;102048.09;;;2.40;67.56
64967;BME280;51710;38.732;-121.358;2022-11-20T13:13:30;102062.75;;;2.26;67.36
64967;BME280;51710;38.732;-121.358;2022-11-20T13:18:29;102059.63;;;2.18;68.16
64967;BME280;51710;38.732;-121.358;2022-11-20T13:21:01;102061.13;;;2.24;68.51
64967;BME280;51710;38.732;-121.358;2022-11-20T13:23:28;102046.84;;;2.29;68.24
64967;BME280;51710;38.732;-121.358;2022-11-20T13:26:14;102055.22;;;2.38;68.40
64967;BME280;51710;38.732;-121.358;2022-11-20T13:28:42;102060.03;;;2.47;68.53
64967;BME280;51710;38.732;-121.358;2022-11-20T13:31:33;102057.13;;;2.53;68.22
64967;BME280;51710;38.732;-121.358;2022-11-20T13:34:04;102061.44;;;2.54;68.34
64967;BME280;51710;38.732;-121.358;2022-11-20T13:36:32;102057.88;;;2.55;68.06
64967;BME280;51710;38.732;-121.358;2022-11-20T13:39:25;102059.59;;;2.56;67.94
64967;BME280;51710;38.732;-121.358;2022-11-20T13:42:23;102064.84;;;2.56;68.12
64967;BME280;51710;38.732;-121.358;2022-11-20T13:45:00;102080.56;;;2.57;67.97
64967;BME280;51710;38.732;-121.358;2022-11-20T13:47:29;102072.94;;;2.51;67.92
64967;BME280;51710;38.732;-121.358;2022-11-20T13:50:03;102072.38;;;2.45;68.23
64967;BME280;51710;38.732;-121.358;2022-11-20T13:59:32;102090.38;;;2.54;68.69
64967;BME280;51710;38.732;-121.358;2022-11-20T14:02:11;102094.56;;;2.58;68.67
64967;BME280;51710;38.732;-121.358;2022-11-20T14:04:43;102078.47;;;2.64;68.21
64967;BME280;51710;38.732;-121.358;2022-11-20T14:07:15;102085.31;;;2.68;68.02
64967;BME280;51710;38.732;-121.358;2022-11-20T14:09:54;102086.88;;;2.72;68.03
64967;BME280;51710;38.732;-121.358;2022-11-20T14:12:48;102091.53;;;2.65;67.86
64967;BME280;51710;38.732;-121.358;2022-11-20T14:15:33;102096.97;;;2.62;67.90
64967;BME280;51710;38.732;-121.358;2022-11-20T14:18:18;102106.50;;;2.65;67.75
64967;BME280;51710;38.732;-121.358;2022-11-20T14:26:33;102110.81;;;2.28;67.76
64967;BME280;51710;38.732;-121.358;2022-11-20T14:29:01;102112.81;;;2.23;67.99
64967;BME280;51710;38.732;-121.358;2022-11-20T14:31:28;102116.13;;;2.27;68.55
64967;BME280;51710;38.732;-121.358;2022-11-20T14:33:56;102121.28;;;2.30;68.38
64967;BME280;51710;38.732;-121.358;2022-11-20T14:36:25;102118.56;;;2.32;68.33
64967;BME280;51710;38.732;-121.358;2022-11-20T14:38:53;102120.34;;;2.31;68.01
64967;BME280;51710;38.732;-121.358;2022-11-20T14:41:31;102135.13;;;2.34;68.36
64967;BME280;51710;38.732;-121.358;2022-11-20T14:44:26;102143.28;;;2.27;67.78
64967;BME280;51710;38.732;-121.358;2022-11-20T14:47:01;102142.81;;;2.18;67.85
64967;BME280;51710;38.732;-121.358;2022-11-20T14:49:34;102154.34;;;2.15;68.47
64967;BME280;51710;38.732;-121.358;2022-11-20T14:52:17;102156.97;;;2.15;68.55
64967;BME280;51710;38.732;-121.358;2022-11-20T14:55:03;102147.25;;;2.17;68.26